METAR Data
IDs: Format: Raw Decoded Include TAF

Data at: 0703 UTC 08 May 2021

METAR for:EKRN (Ronne/Bornholm Arpt, HO, DN)
Text:EKRN 080650Z AUTO 27014KT 9999 SCT008/// 07/05 Q1014
Temperature: 7.0°C ( 45°F)
Dewpoint: 5.0°C ( 41°F) [RH = 87%]
Pressure (altimeter):29.94 inches Hg (1014.0 mb)
Winds:from the W (270 degrees) at 16 MPH (14 knots; 7.2 m/s)
Visibility:6 or more sm (10+ km)
Ceiling:at least 12,000 feet AGL
Clouds: scattered clouds at 800 feet AGL
Text:EKRN 080620Z AUTO 27012KT 9999 BKN008/// 07/05 Q1014
Temperature: 7.0°C ( 45°F)
Dewpoint: 5.0°C ( 41°F) [RH = 87%]
Pressure (altimeter):29.94 inches Hg (1014.0 mb)
Winds:from the W (270 degrees) at 14 MPH (12 knots; 6.2 m/s)
Visibility:6 or more sm (10+ km)
Ceiling:800 feet AGL
Clouds: broken clouds at 800 feet AGL
Text:EKRN 080550Z AUTO 27014KT 9999 FEW036/// FEW063/// 07/05 Q1013
Temperature: 7.0°C ( 45°F)
Dewpoint: 5.0°C ( 41°F) [RH = 87%]
Pressure (altimeter):29.91 inches Hg (1013.0 mb)
Winds:from the W (270 degrees) at 16 MPH (14 knots; 7.2 m/s)
Visibility:6 or more sm (10+ km)
Ceiling:at least 12,000 feet AGL
Clouds: few clouds at 3600 feet AGL, few clouds at 6300 feet AGL
Text:EKRN 080520Z AUTO 27013KT 9999 BKN036/// BKN069/// 06/05 Q1013
Temperature: 6.0°C ( 43°F)
Dewpoint: 5.0°C ( 41°F) [RH = 93%]
Pressure (altimeter):29.91 inches Hg (1013.0 mb)
Winds:from the W (270 degrees) at 15 MPH (13 knots; 6.7 m/s)
Visibility:6 or more sm (10+ km)
Ceiling:3600 feet AGL
Clouds: broken clouds at 3600 feet AGL, broken clouds at 6900 feet AGL
Text:EKRN 080450Z AUTO 27011KT 9999 SCT007/// BKN045/// OVC074/// 06/05 Q1013
Temperature: 6.0°C ( 43°F)
Dewpoint: 5.0°C ( 41°F) [RH = 93%]
Pressure (altimeter):29.91 inches Hg (1013.0 mb)
Winds:from the W (270 degrees) at 13 MPH (11 knots; 5.7 m/s)
Visibility:6 or more sm (10+ km)
Ceiling:4500 feet AGL
Clouds: scattered clouds at 700 feet AGL, broken clouds at 4500 feet AGL, overcast cloud deck at 7400 feet AGL
Text:EKRN 080420Z AUTO 26009KT 9999 SCT008/// BKN041/// OVC075/// 06/05 Q1012
Temperature: 6.0°C ( 43°F)
Dewpoint: 5.0°C ( 41°F) [RH = 93%]
Pressure (altimeter):29.88 inches Hg (1012.0 mb)
Winds:from the W (260 degrees) at 10 MPH (9 knots; 4.6 m/s)
Visibility:6 or more sm (10+ km)
Ceiling:4100 feet AGL
Clouds: scattered clouds at 800 feet AGL, broken clouds at 4100 feet AGL, overcast cloud deck at 7500 feet AGL
Text:EKRN 080350Z AUTO 27008KT 9999 FEW009/// FEW011/// BKN039/// 06/05 Q1012
Temperature: 6.0°C ( 43°F)
Dewpoint: 5.0°C ( 41°F) [RH = 93%]
Pressure (altimeter):29.88 inches Hg (1012.0 mb)
Winds:from the W (270 degrees) at 9 MPH (8 knots; 4.1 m/s)
Visibility:6 or more sm (10+ km)
Ceiling:3900 feet AGL
Clouds: few clouds at 900 feet AGL, few clouds at 1100 feet AGL, broken clouds at 3900 feet AGL
Text:EKRN 080320Z AUTO 26008KT 9999 FEW012/// BKN037/// BKN056/// BKN076/// 06/05 Q1012
Temperature: 6.0°C ( 43°F)
Dewpoint: 5.0°C ( 41°F) [RH = 93%]
Pressure (altimeter):29.88 inches Hg (1012.0 mb)
Winds:from the W (260 degrees) at 9 MPH (8 knots; 4.1 m/s)
Visibility:6 or more sm (10+ km)
Ceiling:3700 feet AGL
Clouds: few clouds at 1200 feet AGL, broken clouds at 3700 feet AGL, broken clouds at 5600 feet AGL, broken clouds at 7600 feet AGL
Text:EKRN 080250Z AUTO 26009KT 9999 BKN035/// OVC074/// 06/05 Q1012
Temperature: 6.0°C ( 43°F)
Dewpoint: 5.0°C ( 41°F) [RH = 93%]
Pressure (altimeter):29.88 inches Hg (1012.0 mb)
Winds:from the W (260 degrees) at 10 MPH (9 knots; 4.6 m/s)
Visibility:6 or more sm (10+ km)
Ceiling:3500 feet AGL
Clouds: broken clouds at 3500 feet AGL, overcast cloud deck at 7400 feet AGL
Text:EKRN 080220Z AUTO 26010KT 9999 FEW046/// BKN073/// 06/05 Q1012
Temperature: 6.0°C ( 43°F)
Dewpoint: 5.0°C ( 41°F) [RH = 93%]
Pressure (altimeter):29.88 inches Hg (1012.0 mb)
Winds:from the W (260 degrees) at 12 MPH (10 knots; 5.1 m/s)
Visibility:6 or more sm (10+ km)
Ceiling:7300 feet AGL
Clouds: few clouds at 4600 feet AGL, broken clouds at 7300 feet AGL
Text:EKRN 080150Z AUTO 26010KT 9999 FEW032/// OVC067/// 06/05 Q1012
Temperature: 6.0°C ( 43°F)
Dewpoint: 5.0°C ( 41°F) [RH = 93%]
Pressure (altimeter):29.88 inches Hg (1012.0 mb)
Winds:from the W (260 degrees) at 12 MPH (10 knots; 5.1 m/s)
Visibility:6 or more sm (10+ km)
Ceiling:6700 feet AGL
Clouds: few clouds at 3200 feet AGL, overcast cloud deck at 6700 feet AGL
Text:EKRN 080120Z AUTO 27010KT 9999 BKN029/// OVC063/// 06/05 Q1012
Temperature: 6.0°C ( 43°F)
Dewpoint: 5.0°C ( 41°F) [RH = 93%]
Pressure (altimeter):29.88 inches Hg (1012.0 mb)
Winds:from the W (270 degrees) at 12 MPH (10 knots; 5.1 m/s)
Visibility:6 or more sm (10+ km)
Ceiling:2900 feet AGL
Clouds: broken clouds at 2900 feet AGL, overcast cloud deck at 6300 feet AGL
Text:EKRN 080050Z AUTO 26009KT 9999 SCT024/// BKN033/// OVC062/// 06/05 Q1012
Temperature: 6.0°C ( 43°F)
Dewpoint: 5.0°C ( 41°F) [RH = 93%]
Pressure (altimeter):29.88 inches Hg (1012.0 mb)
Winds:from the W (260 degrees) at 10 MPH (9 knots; 4.6 m/s)
Visibility:6 or more sm (10+ km)
Ceiling:3300 feet AGL
Clouds: scattered clouds at 2400 feet AGL, broken clouds at 3300 feet AGL, overcast cloud deck at 6200 feet AGL
Text:EKRN 080020Z AUTO 26011KT 9999 FEW015/// OVC028/// 06/05 Q1012
Temperature: 6.0°C ( 43°F)
Dewpoint: 5.0°C ( 41°F) [RH = 93%]
Pressure (altimeter):29.88 inches Hg (1012.0 mb)
Winds:from the W (260 degrees) at 13 MPH (11 knots; 5.7 m/s)
Visibility:6 or more sm (10+ km)
Ceiling:2800 feet AGL
Clouds: few clouds at 1500 feet AGL, overcast cloud deck at 2800 feet AGL
Text:EKRN 072350Z AUTO 26008KT 9999 FEW036/// OVC062/// 06/05 Q1012
Temperature: 6.0°C ( 43°F)
Dewpoint: 5.0°C ( 41°F) [RH = 93%]
Pressure (altimeter):29.88 inches Hg (1012.0 mb)
Winds:from the W (260 degrees) at 9 MPH (8 knots; 4.1 m/s)
Visibility:6 or more sm (10+ km)
Ceiling:6200 feet AGL
Clouds: few clouds at 3600 feet AGL, overcast cloud deck at 6200 feet AGL
Text:EKRN 072320Z AUTO 26007KT 9999 FEW020/// FEW028/// BKN074/// 06/05 Q1012
Temperature: 6.0°C ( 43°F)
Dewpoint: 5.0°C ( 41°F) [RH = 93%]
Pressure (altimeter):29.88 inches Hg (1012.0 mb)
Winds:from the W (260 degrees) at 8 MPH (7 knots; 3.6 m/s)
Visibility:6 or more sm (10+ km)
Ceiling:7400 feet AGL
Clouds: few clouds at 2000 feet AGL, few clouds at 2800 feet AGL, broken clouds at 7400 feet AGL
Text:EKRN 072250Z AUTO 27008KT 9999 FEW028/// FEW038/// BKN077/// 06/04 Q1012
Temperature: 6.0°C ( 43°F)
Dewpoint: 4.0°C ( 39°F) [RH = 87%]
Pressure (altimeter):29.88 inches Hg (1012.0 mb)
Winds:from the W (270 degrees) at 9 MPH (8 knots; 4.1 m/s)
Visibility:6 or more sm (10+ km)
Ceiling:7700 feet AGL
Clouds: few clouds at 2800 feet AGL, few clouds at 3800 feet AGL, broken clouds at 7700 feet AGL
Text:EKRN 072220Z AUTO 00000KT 9999 BKN077/// 04/03 Q1011
Temperature: 4.0°C ( 39°F)
Dewpoint: 3.0°C ( 37°F) [RH = 93%]
Pressure (altimeter):29.85 inches Hg (1011.0 mb)
Winds:calm
Visibility:6 or more sm (10+ km)
Ceiling:7700 feet AGL
Clouds: broken clouds at 7700 feet AGL
Text:EKRN 072150Z AUTO 23001KT 9999 NCD 03/02 Q1011
Temperature: 3.0°C ( 37°F)
Dewpoint: 2.0°C ( 36°F) [RH = 93%]
Pressure (altimeter):29.85 inches Hg (1011.0 mb)
Winds:from the SW (230 degrees) at 1 MPH (1 knots; 0.5 m/s)
Visibility:6 or more sm (10+ km)
Ceiling:at least 12,000 feet AGL
Clouds:sky clear below 12,000 feet AGL
Text:EKRN 072120Z AUTO 28001KT 9999 FEW071/// 04/03 Q1011
Temperature: 4.0°C ( 39°F)
Dewpoint: 3.0°C ( 37°F) [RH = 93%]
Pressure (altimeter):29.85 inches Hg (1011.0 mb)
Winds:from the W (280 degrees) at 1 MPH (1 knots; 0.5 m/s)
Visibility:6 or more sm (10+ km)
Ceiling:at least 12,000 feet AGL
Clouds: few clouds at 7100 feet AGL
Text:EKRN 072050Z AUTO 00000KT 9999 -SHRA FEW042/// OVC074/// 05/02 Q1011
Temperature: 5.0°C ( 41°F)
Dewpoint: 2.0°C ( 36°F) [RH = 81%]
Pressure (altimeter):29.85 inches Hg (1011.0 mb)
Winds:calm
Visibility:6 or more sm (10+ km)
Ceiling:7400 feet AGL
Clouds: few clouds at 4200 feet AGL, overcast cloud deck at 7400 feet AGL
Weather:-SHRA (light rain showers)
Text:EKRN 072020Z AUTO 36003KT 9999 FEW017/// BKN081/// 06/02 Q1011
Temperature: 6.0°C ( 43°F)
Dewpoint: 2.0°C ( 36°F) [RH = 75%]
Pressure (altimeter):29.85 inches Hg (1011.0 mb)
Winds:from the N (360 degrees) at 3 MPH (3 knots; 1.5 m/s)
Visibility:6 or more sm (10+ km)
Ceiling:8100 feet AGL
Clouds: few clouds at 1700 feet AGL, broken clouds at 8100 feet AGL
Text:EKRN 071950Z AUTO 33006KT 9999 SCT015/// BKN053/// 06/03 Q1011
Temperature: 6.0°C ( 43°F)
Dewpoint: 3.0°C ( 37°F) [RH = 81%]
Pressure (altimeter):29.85 inches Hg (1011.0 mb)
Winds:from the NNW (330 degrees) at 7 MPH (6 knots; 3.1 m/s)
Visibility:6 or more sm (10+ km)
Ceiling:5300 feet AGL
Clouds: scattered clouds at 1500 feet AGL, broken clouds at 5300 feet AGL
Text:EKRN 071920Z AUTO 31005KT 280V340 9999 BKN056/// 06/04 Q1010
Temperature: 6.0°C ( 43°F)
Dewpoint: 4.0°C ( 39°F) [RH = 87%]
Pressure (altimeter):29.82 inches Hg (1010.0 mb)
Winds:from the NW (310 degrees) at 6 MPH (5 knots; 2.6 m/s)
Visibility:6 or more sm (10+ km)
Ceiling:5600 feet AGL
Clouds: broken clouds at 5600 feet AGL
Text:EKRN 071850Z AUTO 31004KT 9999 SCT076/// 06/04 Q1010
Temperature: 6.0°C ( 43°F)
Dewpoint: 4.0°C ( 39°F) [RH = 87%]
Pressure (altimeter):29.82 inches Hg (1010.0 mb)
Winds:from the NW (310 degrees) at 5 MPH (4 knots; 2.1 m/s)
Visibility:6 or more sm (10+ km)
Ceiling:at least 12,000 feet AGL
Clouds: scattered clouds at 7600 feet AGL
Text:EKRN 071820Z AUTO 29007KT 9999 FEW066/// 06/04 Q1010
Temperature: 6.0°C ( 43°F)
Dewpoint: 4.0°C ( 39°F) [RH = 87%]
Pressure (altimeter):29.82 inches Hg (1010.0 mb)
Winds:from the WNW (290 degrees) at 8 MPH (7 knots; 3.6 m/s)
Visibility:6 or more sm (10+ km)
Ceiling:at least 12,000 feet AGL
Clouds: few clouds at 6600 feet AGL
Text:EKRN 071750Z AUTO 28008KT 9999 FEW066/// 06/04 Q1009
Temperature: 6.0°C ( 43°F)
Dewpoint: 4.0°C ( 39°F) [RH = 87%]
Pressure (altimeter):29.79 inches Hg (1009.0 mb)
Winds:from the W (280 degrees) at 9 MPH (8 knots; 4.1 m/s)
Visibility:6 or more sm (10+ km)
Ceiling:at least 12,000 feet AGL
Clouds: few clouds at 6600 feet AGL
Text:EKRN 071720Z AUTO 28007KT 9999 FEW027/// 06/04 Q1009
Temperature: 6.0°C ( 43°F)
Dewpoint: 4.0°C ( 39°F) [RH = 87%]
Pressure (altimeter):29.79 inches Hg (1009.0 mb)
Winds:from the W (280 degrees) at 8 MPH (7 knots; 3.6 m/s)
Visibility:6 or more sm (10+ km)
Ceiling:at least 12,000 feet AGL
Clouds: few clouds at 2700 feet AGL
Text:EKRN 071650Z AUTO 29008KT 260V320 9999 FEW014/// FEW027/// FEW032/// BKN043/// 07/03 Q1009
Temperature: 7.0°C ( 45°F)
Dewpoint: 3.0°C ( 37°F) [RH = 76%]
Pressure (altimeter):29.79 inches Hg (1009.0 mb)
Winds:from the WNW (290 degrees) at 9 MPH (8 knots; 4.1 m/s)
Visibility:6 or more sm (10+ km)
Ceiling:4300 feet AGL
Clouds: few clouds at 1400 feet AGL, few clouds at 2700 feet AGL, few clouds at 3200 feet AGL, broken clouds at 4300 feet AGL
Text:EKRN 071620Z AUTO 29011KT 9999 FEW010/// BKN030/// 07/04 Q1008
Temperature: 7.0°C ( 45°F)
Dewpoint: 4.0°C ( 39°F) [RH = 81%]
Pressure (altimeter):29.76 inches Hg (1008.0 mb)
Winds:from the WNW (290 degrees) at 13 MPH (11 knots; 5.7 m/s)
Visibility:6 or more sm (10+ km)
Ceiling:3000 feet AGL
Clouds: few clouds at 1000 feet AGL, broken clouds at 3000 feet AGL
Text:EKRN 071550Z AUTO 27015KT 9999 BKN020/// 07/04 Q1008
Temperature: 7.0°C ( 45°F)
Dewpoint: 4.0°C ( 39°F) [RH = 81%]
Pressure (altimeter):29.76 inches Hg (1008.0 mb)
Winds:from the W (270 degrees) at 17 MPH (15 knots; 7.7 m/s)
Visibility:6 or more sm (10+ km)
Ceiling:2000 feet AGL
Clouds: broken clouds at 2000 feet AGL
Text:EKRN 071520Z AUTO 27014KT 9999 BKN025/// 07/04 Q1008
Temperature: 7.0°C ( 45°F)
Dewpoint: 4.0°C ( 39°F) [RH = 81%]
Pressure (altimeter):29.76 inches Hg (1008.0 mb)
Winds:from the W (270 degrees) at 16 MPH (14 knots; 7.2 m/s)
Visibility:6 or more sm (10+ km)
Ceiling:2500 feet AGL
Clouds: broken clouds at 2500 feet AGL
Text:EKRN 071450Z AUTO 27014KT 9999 BKN030/// 08/04 Q1008
Temperature: 8.0°C ( 46°F)
Dewpoint: 4.0°C ( 39°F) [RH = 76%]
Pressure (altimeter):29.76 inches Hg (1008.0 mb)
Winds:from the W (270 degrees) at 16 MPH (14 knots; 7.2 m/s)
Visibility:6 or more sm (10+ km)
Ceiling:3000 feet AGL
Clouds: broken clouds at 3000 feet AGL
Text:EKRN 071420Z AUTO 27012KT 9999 FEW035/// FEW041/// 08/04 Q1007
Temperature: 8.0°C ( 46°F)
Dewpoint: 4.0°C ( 39°F) [RH = 76%]
Pressure (altimeter):29.73 inches Hg (1007.0 mb)
Winds:from the W (270 degrees) at 14 MPH (12 knots; 6.2 m/s)
Visibility:6 or more sm (10+ km)
Ceiling:at least 12,000 feet AGL
Clouds: few clouds at 3500 feet AGL, few clouds at 4100 feet AGL
Text:EKRN 071350Z AUTO 27012KT 9999 SCT042/// 07/04 Q1007
Temperature: 7.0°C ( 45°F)
Dewpoint: 4.0°C ( 39°F) [RH = 81%]
Pressure (altimeter):29.73 inches Hg (1007.0 mb)
Winds:from the W (270 degrees) at 14 MPH (12 knots; 6.2 m/s)
Visibility:6 or more sm (10+ km)
Ceiling:at least 12,000 feet AGL
Clouds: scattered clouds at 4200 feet AGL
Text:EKRN 071320Z AUTO 26014KT 9999 NCD 08/04 Q1007
Temperature: 8.0°C ( 46°F)
Dewpoint: 4.0°C ( 39°F) [RH = 76%]
Pressure (altimeter):29.73 inches Hg (1007.0 mb)
Winds:from the W (260 degrees) at 16 MPH (14 knots; 7.2 m/s)
Visibility:6 or more sm (10+ km)
Ceiling:at least 12,000 feet AGL
Clouds:sky clear below 12,000 feet AGL
Text:EKRN 071250Z AUTO 26014KT 9999 NCD 08/03 Q1007
Temperature: 8.0°C ( 46°F)
Dewpoint: 3.0°C ( 37°F) [RH = 71%]
Pressure (altimeter):29.73 inches Hg (1007.0 mb)
Winds:from the W (260 degrees) at 16 MPH (14 knots; 7.2 m/s)
Visibility:6 or more sm (10+ km)
Ceiling:at least 12,000 feet AGL
Clouds:sky clear below 12,000 feet AGL
Text:EKRN 071220Z AUTO 26014KT 9999 FEW016/// 08/03 Q1006
Temperature: 8.0°C ( 46°F)
Dewpoint: 3.0°C ( 37°F) [RH = 71%]
Pressure (altimeter):29.70 inches Hg (1006.0 mb)
Winds:from the W (260 degrees) at 16 MPH (14 knots; 7.2 m/s)
Visibility:6 or more sm (10+ km)
Ceiling:at least 12,000 feet AGL
Clouds: few clouds at 1600 feet AGL
Text:EKRN 071150Z AUTO 26014KT 9999 BKN015/// 08/04 Q1006
Temperature: 8.0°C ( 46°F)
Dewpoint: 4.0°C ( 39°F) [RH = 76%]
Pressure (altimeter):29.70 inches Hg (1006.0 mb)
Winds:from the W (260 degrees) at 16 MPH (14 knots; 7.2 m/s)
Visibility:6 or more sm (10+ km)
Ceiling:1500 feet AGL
Clouds: broken clouds at 1500 feet AGL
Text:EKRN 071120Z AUTO 26013KT 9999 BKN016/// 07/03 Q1006
Temperature: 7.0°C ( 45°F)
Dewpoint: 3.0°C ( 37°F) [RH = 76%]
Pressure (altimeter):29.70 inches Hg (1006.0 mb)
Winds:from the W (260 degrees) at 15 MPH (13 knots; 6.7 m/s)
Visibility:6 or more sm (10+ km)
Ceiling:1600 feet AGL
Clouds: broken clouds at 1600 feet AGL
Text:EKRN 071050Z AUTO 26012KT 9999 NCD 07/03 Q1006
Temperature: 7.0°C ( 45°F)
Dewpoint: 3.0°C ( 37°F) [RH = 76%]
Pressure (altimeter):29.70 inches Hg (1006.0 mb)
Winds:from the W (260 degrees) at 14 MPH (12 knots; 6.2 m/s)
Visibility:6 or more sm (10+ km)
Ceiling:at least 12,000 feet AGL
Clouds:sky clear below 12,000 feet AGL
Text:EKRN 071020Z AUTO 27013KT 9999 FEW011/// 07/03 Q1006
Temperature: 7.0°C ( 45°F)
Dewpoint: 3.0°C ( 37°F) [RH = 76%]
Pressure (altimeter):29.70 inches Hg (1006.0 mb)
Winds:from the W (270 degrees) at 15 MPH (13 knots; 6.7 m/s)
Visibility:6 or more sm (10+ km)
Ceiling:at least 12,000 feet AGL
Clouds: few clouds at 1100 feet AGL
Text:EKRN 070950Z AUTO 27013KT 9999 SCT027/// BKN046/// 07/03 Q1005
Temperature: 7.0°C ( 45°F)
Dewpoint: 3.0°C ( 37°F) [RH = 76%]
Pressure (altimeter):29.68 inches Hg (1005.0 mb)
Winds:from the W (270 degrees) at 15 MPH (13 knots; 6.7 m/s)
Visibility:6 or more sm (10+ km)
Ceiling:4600 feet AGL
Clouds: scattered clouds at 2700 feet AGL, broken clouds at 4600 feet AGL
Text:EKRN 070920Z AUTO 27012KT 9999 -SHRA BKN022/// 07/04 Q1005
Temperature: 7.0°C ( 45°F)
Dewpoint: 4.0°C ( 39°F) [RH = 81%]
Pressure (altimeter):29.68 inches Hg (1005.0 mb)
Winds:from the W (270 degrees) at 14 MPH (12 knots; 6.2 m/s)
Visibility:6 or more sm (10+ km)
Ceiling:2200 feet AGL
Clouds: broken clouds at 2200 feet AGL
Weather:-SHRA (light rain showers)
Text:EKRN 070850Z AUTO 26013KT 9999 FEW018/// BKN033/// 07/03 Q1005
Temperature: 7.0°C ( 45°F)
Dewpoint: 3.0°C ( 37°F) [RH = 76%]
Pressure (altimeter):29.68 inches Hg (1005.0 mb)
Winds:from the W (260 degrees) at 15 MPH (13 knots; 6.7 m/s)
Visibility:6 or more sm (10+ km)
Ceiling:3300 feet AGL
Clouds: few clouds at 1800 feet AGL, broken clouds at 3300 feet AGL
Text:EKRN 070820Z AUTO 26013KT 9999 SCT014/// BKN041/// 06/03 Q1005
Temperature: 6.0°C ( 43°F)
Dewpoint: 3.0°C ( 37°F) [RH = 81%]
Pressure (altimeter):29.68 inches Hg (1005.0 mb)
Winds:from the W (260 degrees) at 15 MPH (13 knots; 6.7 m/s)
Visibility:6 or more sm (10+ km)
Ceiling:4100 feet AGL
Clouds: scattered clouds at 1400 feet AGL, broken clouds at 4100 feet AGL
Text:EKRN 070750Z AUTO 26012KT 9999 FEW014/// OVC020/// 06/03 Q1004
Temperature: 6.0°C ( 43°F)
Dewpoint: 3.0°C ( 37°F) [RH = 81%]
Pressure (altimeter):29.65 inches Hg (1004.0 mb)
Winds:from the W (260 degrees) at 14 MPH (12 knots; 6.2 m/s)
Visibility:6 or more sm (10+ km)
Ceiling:2000 feet AGL
Clouds: few clouds at 1400 feet AGL, overcast cloud deck at 2000 feet AGL
Text:EKRN 070720Z AUTO 26013KT 9999 FEW014/// OVC030/// 07/03 Q1004
Temperature: 7.0°C ( 45°F)
Dewpoint: 3.0°C ( 37°F) [RH = 76%]
Pressure (altimeter):29.65 inches Hg (1004.0 mb)
Winds:from the W (260 degrees) at 15 MPH (13 knots; 6.7 m/s)
Visibility:6 or more sm (10+ km)
Ceiling:3000 feet AGL
Clouds: few clouds at 1400 feet AGL, overcast cloud deck at 3000 feet AGL
Text:EKRN 070650Z AUTO 25010KT 9999 BKN014/// 06/03 Q1004
Temperature: 6.0°C ( 43°F)
Dewpoint: 3.0°C ( 37°F) [RH = 81%]
Pressure (altimeter):29.65 inches Hg (1004.0 mb)
Winds:from the WSW (250 degrees) at 12 MPH (10 knots; 5.1 m/s)
Visibility:6 or more sm (10+ km)
Ceiling:1400 feet AGL
Clouds: broken clouds at 1400 feet AGL
Text:EKRN 070620Z AUTO 26012KT 9999 BKN017/// 06/03 Q1004
Temperature: 6.0°C ( 43°F)
Dewpoint: 3.0°C ( 37°F) [RH = 81%]
Pressure (altimeter):29.65 inches Hg (1004.0 mb)
Winds:from the W (260 degrees) at 14 MPH (12 knots; 6.2 m/s)
Visibility:6 or more sm (10+ km)
Ceiling:1700 feet AGL
Clouds: broken clouds at 1700 feet AGL
Text:EKRN 070550Z AUTO 26013KT 9999 OVC014/// 06/03 Q1004
Temperature: 6.0°C ( 43°F)
Dewpoint: 3.0°C ( 37°F) [RH = 81%]
Pressure (altimeter):29.65 inches Hg (1004.0 mb)
Winds:from the W (260 degrees) at 15 MPH (13 knots; 6.7 m/s)
Visibility:6 or more sm (10+ km)
Ceiling:1400 feet AGL
Clouds: overcast cloud deck at 1400 feet AGL
Text:EKRN 070520Z AUTO 26008KT 9999 BKN033/// 06/03 Q1003
Temperature: 6.0°C ( 43°F)
Dewpoint: 3.0°C ( 37°F) [RH = 81%]
Pressure (altimeter):29.62 inches Hg (1003.0 mb)
Winds:from the W (260 degrees) at 9 MPH (8 knots; 4.1 m/s)
Visibility:6 or more sm (10+ km)
Ceiling:3300 feet AGL
Clouds: broken clouds at 3300 feet AGL
Text:EKRN 070450Z AUTO 27011KT 9999 FEW014/// BKN031/// 06/03 Q1003
Temperature: 6.0°C ( 43°F)
Dewpoint: 3.0°C ( 37°F) [RH = 81%]
Pressure (altimeter):29.62 inches Hg (1003.0 mb)
Winds:from the W (270 degrees) at 13 MPH (11 knots; 5.7 m/s)
Visibility:6 or more sm (10+ km)
Ceiling:3100 feet AGL
Clouds: few clouds at 1400 feet AGL, broken clouds at 3100 feet AGL
Text:EKRN 070420Z AUTO 25011KT 9999 BKN015/// 06/03 Q1003
Temperature: 6.0°C ( 43°F)
Dewpoint: 3.0°C ( 37°F) [RH = 81%]
Pressure (altimeter):29.62 inches Hg (1003.0 mb)
Winds:from the WSW (250 degrees) at 13 MPH (11 knots; 5.7 m/s)
Visibility:6 or more sm (10+ km)
Ceiling:1500 feet AGL
Clouds: broken clouds at 1500 feet AGL
Text:EKRN 070350Z AUTO 25010KT 9999 FEW012/// BKN016/// 06/03 Q1003
Temperature: 6.0°C ( 43°F)
Dewpoint: 3.0°C ( 37°F) [RH = 81%]
Pressure (altimeter):29.62 inches Hg (1003.0 mb)
Winds:from the WSW (250 degrees) at 12 MPH (10 knots; 5.1 m/s)
Visibility:6 or more sm (10+ km)
Ceiling:1600 feet AGL
Clouds: few clouds at 1200 feet AGL, broken clouds at 1600 feet AGL
Text:EKRN 070320Z AUTO 25009KT 9999 FEW013/// BKN038/// 06/04 Q1003
Temperature: 6.0°C ( 43°F)
Dewpoint: 4.0°C ( 39°F) [RH = 87%]
Pressure (altimeter):29.62 inches Hg (1003.0 mb)
Winds:from the WSW (250 degrees) at 10 MPH (9 knots; 4.6 m/s)
Visibility:6 or more sm (10+ km)
Ceiling:3800 feet AGL
Clouds: few clouds at 1300 feet AGL, broken clouds at 3800 feet AGL
Text:EKRN 070250Z AUTO 26010KT 9999 FEW012/// BKN035/// 06/04 Q1003
Temperature: 6.0°C ( 43°F)
Dewpoint: 4.0°C ( 39°F) [RH = 87%]
Pressure (altimeter):29.62 inches Hg (1003.0 mb)
Winds:from the W (260 degrees) at 12 MPH (10 knots; 5.1 m/s)
Visibility:6 or more sm (10+ km)
Ceiling:3500 feet AGL
Clouds: few clouds at 1200 feet AGL, broken clouds at 3500 feet AGL
Text:EKRN 070220Z AUTO 26012KT 9999 BKN015/// 05/03 Q1003
Temperature: 5.0°C ( 41°F)
Dewpoint: 3.0°C ( 37°F) [RH = 87%]
Pressure (altimeter):29.62 inches Hg (1003.0 mb)
Winds:from the W (260 degrees) at 14 MPH (12 knots; 6.2 m/s)
Visibility:6 or more sm (10+ km)
Ceiling:1500 feet AGL
Clouds: broken clouds at 1500 feet AGL
Text:EKRN 070150Z AUTO 26012KT 9999 BKN015/// 06/03 Q1003
Temperature: 6.0°C ( 43°F)
Dewpoint: 3.0°C ( 37°F) [RH = 81%]
Pressure (altimeter):29.62 inches Hg (1003.0 mb)
Winds:from the W (260 degrees) at 14 MPH (12 knots; 6.2 m/s)
Visibility:6 or more sm (10+ km)
Ceiling:1500 feet AGL
Clouds: broken clouds at 1500 feet AGL
Text:EKRN 070120Z AUTO 26010KT 9999 FEW012/// SCT015/// 05/03 Q1003
Temperature: 5.0°C ( 41°F)
Dewpoint: 3.0°C ( 37°F) [RH = 87%]
Pressure (altimeter):29.62 inches Hg (1003.0 mb)
Winds:from the W (260 degrees) at 12 MPH (10 knots; 5.1 m/s)
Visibility:6 or more sm (10+ km)
Ceiling:at least 12,000 feet AGL
Clouds: few clouds at 1200 feet AGL, scattered clouds at 1500 feet AGL
Text:EKRN 070050Z AUTO 25011KT 9999 BKN016/// 06/04 Q1003
Temperature: 6.0°C ( 43°F)
Dewpoint: 4.0°C ( 39°F) [RH = 87%]
Pressure (altimeter):29.62 inches Hg (1003.0 mb)
Winds:from the WSW (250 degrees) at 13 MPH (11 knots; 5.7 m/s)
Visibility:6 or more sm (10+ km)
Ceiling:1600 feet AGL
Clouds: broken clouds at 1600 feet AGL
Text:EKRN 070020Z AUTO 25008KT 9999 NCD 06/04 Q1003
Temperature: 6.0°C ( 43°F)
Dewpoint: 4.0°C ( 39°F) [RH = 87%]
Pressure (altimeter):29.62 inches Hg (1003.0 mb)
Winds:from the WSW (250 degrees) at 9 MPH (8 knots; 4.1 m/s)
Visibility:6 or more sm (10+ km)
Ceiling:at least 12,000 feet AGL
Clouds:sky clear below 12,000 feet AGL
Text:EKRN 062350Z AUTO 26007KT 9999 NCD 05/04 Q1003
Temperature: 5.0°C ( 41°F)
Dewpoint: 4.0°C ( 39°F) [RH = 93%]
Pressure (altimeter):29.62 inches Hg (1003.0 mb)
Winds:from the W (260 degrees) at 8 MPH (7 knots; 3.6 m/s)
Visibility:6 or more sm (10+ km)
Ceiling:at least 12,000 feet AGL
Clouds:sky clear below 12,000 feet AGL
Text:EKRN 062320Z AUTO 27009KT 9999 NCD 05/04 Q1003
Temperature: 5.0°C ( 41°F)
Dewpoint: 4.0°C ( 39°F) [RH = 93%]
Pressure (altimeter):29.62 inches Hg (1003.0 mb)
Winds:from the W (270 degrees) at 10 MPH (9 knots; 4.6 m/s)
Visibility:6 or more sm (10+ km)
Ceiling:at least 12,000 feet AGL
Clouds:sky clear below 12,000 feet AGL
Text:EKRN 062250Z AUTO 26010KT 9999 NCD 06/04 Q1003
Temperature: 6.0°C ( 43°F)
Dewpoint: 4.0°C ( 39°F) [RH = 87%]
Pressure (altimeter):29.62 inches Hg (1003.0 mb)
Winds:from the W (260 degrees) at 12 MPH (10 knots; 5.1 m/s)
Visibility:6 or more sm (10+ km)
Ceiling:at least 12,000 feet AGL
Clouds:sky clear below 12,000 feet AGL
Text:EKRN 062220Z AUTO 27012KT 9999 SCT061/// 06/04 Q1003
Temperature: 6.0°C ( 43°F)
Dewpoint: 4.0°C ( 39°F) [RH = 87%]
Pressure (altimeter):29.62 inches Hg (1003.0 mb)
Winds:from the W (270 degrees) at 14 MPH (12 knots; 6.2 m/s)
Visibility:6 or more sm (10+ km)
Ceiling:at least 12,000 feet AGL
Clouds: scattered clouds at 6100 feet AGL
Text:EKRN 062150Z AUTO 27011KT 9999 BKN059/// 06/04 Q1003
Temperature: 6.0°C ( 43°F)
Dewpoint: 4.0°C ( 39°F) [RH = 87%]
Pressure (altimeter):29.62 inches Hg (1003.0 mb)
Winds:from the W (270 degrees) at 13 MPH (11 knots; 5.7 m/s)
Visibility:6 or more sm (10+ km)
Ceiling:5900 feet AGL
Clouds: broken clouds at 5900 feet AGL
Text:EKRN 062120Z AUTO 28012KT 9999 BKN055/// 06/04 Q1003
Temperature: 6.0°C ( 43°F)
Dewpoint: 4.0°C ( 39°F) [RH = 87%]
Pressure (altimeter):29.62 inches Hg (1003.0 mb)
Winds:from the W (280 degrees) at 14 MPH (12 knots; 6.2 m/s)
Visibility:6 or more sm (10+ km)
Ceiling:5500 feet AGL
Clouds: broken clouds at 5500 feet AGL
Text:EKRN 062050Z AUTO 27014KT 9999 FEW013/// SCT042/// SCT057/// 06/04 Q1003
Temperature: 6.0°C ( 43°F)
Dewpoint: 4.0°C ( 39°F) [RH = 87%]
Pressure (altimeter):29.62 inches Hg (1003.0 mb)
Winds:from the W (270 degrees) at 16 MPH (14 knots; 7.2 m/s)
Visibility:6 or more sm (10+ km)
Ceiling:at least 12,000 feet AGL
Clouds: few clouds at 1300 feet AGL, scattered clouds at 4200 feet AGL, scattered clouds at 5700 feet AGL
Text:EKRN 062020Z AUTO 27014KT 9999 FEW014/// BKN057/// 06/04 Q1003
Temperature: 6.0°C ( 43°F)
Dewpoint: 4.0°C ( 39°F) [RH = 87%]
Pressure (altimeter):29.62 inches Hg (1003.0 mb)
Winds:from the W (270 degrees) at 16 MPH (14 knots; 7.2 m/s)
Visibility:6 or more sm (10+ km)
Ceiling:5700 feet AGL
Clouds: few clouds at 1400 feet AGL, broken clouds at 5700 feet AGL
Text:EKRN 061950Z AUTO 26014KT 9999 FEW046/// BKN059/// BKN130/// 06/04 Q1003
Temperature: 6.0°C ( 43°F)
Dewpoint: 4.0°C ( 39°F) [RH = 87%]
Pressure (altimeter):29.62 inches Hg (1003.0 mb)
Winds:from the W (260 degrees) at 16 MPH (14 knots; 7.2 m/s)
Visibility:6 or more sm (10+ km)
Ceiling:5900 feet AGL
Clouds: few clouds at 4600 feet AGL, broken clouds at 5900 feet AGL, broken clouds at 13000 feet AGL
Text:EKRN 061920Z AUTO 25010KT 9999 BKN052/// 06/04 Q1002
Temperature: 6.0°C ( 43°F)
Dewpoint: 4.0°C ( 39°F) [RH = 87%]
Pressure (altimeter):29.59 inches Hg (1002.0 mb)
Winds:from the WSW (250 degrees) at 12 MPH (10 knots; 5.1 m/s)
Visibility:6 or more sm (10+ km)
Ceiling:5200 feet AGL
Clouds: broken clouds at 5200 feet AGL

TAF for:EKRN (Ronne/Bornholm Arpt, HO, DN) issued at 0527 UTC 08 May 2021
Text:TAF EKRN 080527Z 0806/0815 27012KT 9999 SCT030
Forecast period:0600 to 1500 UTC 08 May 2021
Forecast type:FROM: standard forecast or significant change
Winds:from the W (270 degrees) at 14 MPH (12 knots; 6.2 m/s)
Visibility:6 or more sm (10+ km)
Ceiling:at least 12,000 feet AGL
Clouds: scattered clouds at 3000 feet AGL
Text:TEMPO 0806/0808 BKN008 SCT020TCU
Forecast period:0600 to 0800 UTC 08 May 2021
Forecast type:TEMPORARY: The following changes expected for less than half the time period
Ceiling:800 feet AGL
Clouds: broken clouds at 800 feet AGL, scattered clouds at 2000 feet AGL
Text:TEMPO 0808/0815 SCT020TCU
Forecast period:0800 to 1500 UTC 08 May 2021
Forecast type:TEMPORARY: The following changes expected for less than half the time period
Ceiling:at least 12,000 feet AGL
Clouds: scattered clouds at 2000 feet AGL